sensor_id;sensor_type;location;lat;lon;timestamp;P1;durP1;ratioP1;P2;durP2;ratioP2
25637;SDS011;13496;51.040;13.680;2023-03-21T00:02:36;2.63;;;2.42;;
25637;SDS011;13496;51.040;13.680;2023-03-21T00:07:38;3.10;;;2.80;;
25637;SDS011;13496;51.040;13.680;2023-03-21T00:12:39;3.03;;;2.60;;
25637;SDS011;13496;51.040;13.680;2023-03-21T00:17:42;2.58;;;2.38;;
25637;SDS011;13496;51.040;13.680;2023-03-21T00:22:45;2.72;;;2.53;;
25637;SDS011;13496;51.040;13.680;2023-03-21T00:27:46;2.80;;;2.60;;
25637;SDS011;13496;51.040;13.680;2023-03-21T00:32:48;2.72;;;2.53;;
25637;SDS011;13496;51.040;13.680;2023-03-21T00:37:50;3.00;;;2.50;;
25637;SDS011;13496;51.040;13.680;2023-03-21T00:42:52;4.05;;;2.47;;
25637;SDS011;13496;51.040;13.680;2023-03-21T00:47:54;2.72;;;2.30;;
25637;SDS011;13496;51.040;13.680;2023-03-21T00:52:55;2.53;;;2.33;;
25637;SDS011;13496;51.040;13.680;2023-03-21T00:57:59;2.72;;;2.53;;
25637;SDS011;13496;51.040;13.680;2023-03-21T01:03:02;2.70;;;2.50;;
25637;SDS011;13496;51.040;13.680;2023-03-21T01:08:08;2.75;;;2.55;;
25637;SDS011;13496;51.040;13.680;2023-03-21T01:13:10;2.50;;;2.30;;
25637;SDS011;13496;51.040;13.680;2023-03-21T01:18:14;2.75;;;2.55;;
25637;SDS011;13496;51.040;13.680;2023-03-21T01:23:16;2.20;;;2.10;;
25637;SDS011;13496;51.040;13.680;2023-03-21T01:28:18;2.67;;;2.47;;
25637;SDS011;13496;51.040;13.680;2023-03-21T01:33:20;2.65;;;2.45;;
25637;SDS011;13496;51.040;13.680;2023-03-21T01:38:22;2.60;;;2.40;;
25637;SDS011;13496;51.040;13.680;2023-03-21T01:43:26;2.45;;;2.25;;
25637;SDS011;13496;51.040;13.680;2023-03-21T01:48:31;2.47;;;2.17;;
25637;SDS011;13496;51.040;13.680;2023-03-21T01:53:36;2.22;;;2.03;;
25637;SDS011;13496;51.040;13.680;2023-03-21T01:58:40;2.38;;;2.20;;
25637;SDS011;13496;51.040;13.680;2023-03-21T02:04:02;2.60;;;2.40;;
25637;SDS011;13496;51.040;13.680;2023-03-21T02:09:18;2.75;;;2.10;;
25637;SDS011;13496;51.040;13.680;2023-03-21T02:14:22;2.45;;;2.25;;
25637;SDS011;13496;51.040;13.680;2023-03-21T02:25:06;2.28;;;2.17;;
25637;SDS011;13496;51.040;13.680;2023-03-21T02:30:37;2.30;;;2.10;;
25637;SDS011;13496;51.040;13.680;2023-03-21T02:36:04;2.38;;;2.20;;
25637;SDS011;13496;51.040;13.680;2023-03-21T02:47:10;2.70;;;2.50;;
25637;SDS011;13496;51.040;13.680;2023-03-21T02:52:17;2.58;;;2.38;;
25637;SDS011;13496;51.040;13.680;2023-03-21T02:57:23;2.42;;;2.22;;
25637;SDS011;13496;51.040;13.680;2023-03-21T03:02:27;2.35;;;2.22;;
25637;SDS011;13496;51.040;13.680;2023-03-21T03:07:52;2.47;;;2.28;;
25637;SDS011;13496;51.040;13.680;2023-03-21T03:18:25;2.05;;;1.95;;
25637;SDS011;13496;51.040;13.680;2023-03-21T03:24:00;1.70;;;1.60;;
25637;SDS011;13496;51.040;13.680;2023-03-21T03:29:11;2.35;;;2.15;;
25637;SDS011;13496;51.040;13.680;2023-03-21T03:34:18;2.17;;;2.08;;
25637;SDS011;13496;51.040;13.680;2023-03-21T03:39:26;2.30;;;2.10;;
25637;SDS011;13496;51.040;13.680;2023-03-21T03:44:36;2.03;;;1.92;;
25637;SDS011;13496;51.040;13.680;2023-03-21T03:49:42;2.47;;;2.28;;
25637;SDS011;13496;51.040;13.680;2023-03-21T03:54:49;2.53;;;2.33;;
25637;SDS011;13496;51.040;13.680;2023-03-21T03:59:53;2.22;;;2.13;;
25637;SDS011;13496;51.040;13.680;2023-03-21T04:05:01;2.10;;;2.00;;
25637;SDS011;13496;51.040;13.680;2023-03-21T04:10:04;1.90;;;1.80;;
25637;SDS011;13496;51.040;13.680;2023-03-21T04:15:14;2.20;;;2.08;;
25637;SDS011;13496;51.040;13.680;2023-03-21T04:20:22;2.40;;;2.20;;
25637;SDS011;13496;51.040;13.680;2023-03-21T04:25:24;2.20;;;2.03;;
25637;SDS011;13496;51.040;13.680;2023-03-21T04:30:30;2.10;;;2.00;;
25637;SDS011;13496;51.040;13.680;2023-03-21T04:35:42;2.40;;;1.90;;
25637;SDS011;13496;51.040;13.680;2023-03-21T04:40:47;2.10;;;1.90;;
25637;SDS011;13496;51.040;13.680;2023-03-21T04:45:49;2.40;;;2.20;;
25637;SDS011;13496;51.040;13.680;2023-03-21T04:50:52;2.00;;;1.90;;
25637;SDS011;13496;51.040;13.680;2023-03-21T04:55:54;2.00;;;1.90;;
25637;SDS011;13496;51.040;13.680;2023-03-21T05:00:59;2.00;;;1.90;;
25637;SDS011;13496;51.040;13.680;2023-03-21T05:06:02;2.00;;;1.90;;
25637;SDS011;13496;51.040;13.680;2023-03-21T05:11:04;1.92;;;1.83;;
25637;SDS011;13496;51.040;13.680;2023-03-21T05:16:06;2.30;;;2.10;;
25637;SDS011;13496;51.040;13.680;2023-03-21T05:21:09;2.00;;;1.90;;
25637;SDS011;13496;51.040;13.680;2023-03-21T05:26:12;2.95;;;2.00;;
25637;SDS011;13496;51.040;13.680;2023-03-21T05:31:21;3.45;;;2.03;;
25637;SDS011;13496;51.040;13.680;2023-03-21T05:36:28;2.08;;;1.98;;
25637;SDS011;13496;51.040;13.680;2023-03-21T05:41:30;2.25;;;2.00;;
25637;SDS011;13496;51.040;13.680;2023-03-21T05:46:34;2.00;;;1.80;;
25637;SDS011;13496;51.040;13.680;2023-03-21T05:51:36;4.20;;;2.05;;
25637;SDS011;13496;51.040;13.680;2023-03-21T05:56:38;2.15;;;2.03;;
25637;SDS011;13496;51.040;13.680;2023-03-21T06:01:42;2.00;;;1.90;;
25637;SDS011;13496;51.040;13.680;2023-03-21T06:06:49;3.70;;;1.80;;
25637;SDS011;13496;51.040;13.680;2023-03-21T06:11:53;1.90;;;1.80;;
25637;SDS011;13496;51.040;13.680;2023-03-21T06:17:02;2.40;;;2.20;;
25637;SDS011;13496;51.040;13.680;2023-03-21T06:22:05;1.65;;;1.50;;
25637;SDS011;13496;51.040;13.680;2023-03-21T06:27:10;2.05;;;1.95;;
25637;SDS011;13496;51.040;13.680;2023-03-21T06:32:23;2.35;;;1.98;;
25637;SDS011;13496;51.040;13.680;2023-03-21T06:37:30;5.38;;;1.98;;
25637;SDS011;13496;51.040;13.680;2023-03-21T06:42:32;1.80;;;1.70;;
25637;SDS011;13496;51.040;13.680;2023-03-21T06:47:41;2.00;;;1.77;;
25637;SDS011;13496;51.040;13.680;2023-03-21T06:52:50;2.00;;;1.80;;
25637;SDS011;13496;51.040;13.680;2023-03-21T06:57:53;1.83;;;1.70;;
25637;SDS011;13496;51.040;13.680;2023-03-21T07:03:01;1.88;;;1.70;;
25637;SDS011;13496;51.040;13.680;2023-03-21T07:08:04;1.92;;;1.83;;
25637;SDS011;13496;51.040;13.680;2023-03-21T07:13:08;2.03;;;1.92;;
25637;SDS011;13496;51.040;13.680;2023-03-21T07:18:21;2.60;;;1.80;;
25637;SDS011;13496;51.040;13.680;2023-03-21T07:23:24;2.10;;;1.90;;
25637;SDS011;13496;51.040;13.680;2023-03-21T07:28:26;2.35;;;1.75;;
25637;SDS011;13496;51.040;13.680;2023-03-21T07:33:28;2.05;;;1.92;;
25637;SDS011;13496;51.040;13.680;2023-03-21T07:38:34;2.10;;;1.88;;
25637;SDS011;13496;51.040;13.680;2023-03-21T07:43:36;1.83;;;1.58;;
25637;SDS011;13496;51.040;13.680;2023-03-21T07:48:37;2.05;;;1.85;;
25637;SDS011;13496;51.040;13.680;2023-03-21T07:53:39;3.05;;;1.80;;
25637;SDS011;13496;51.040;13.680;2023-03-21T07:58:42;1.67;;;1.58;;
25637;SDS011;13496;51.040;13.680;2023-03-21T08:03:44;1.50;;;1.40;;
25637;SDS011;13496;51.040;13.680;2023-03-21T08:08:45;1.65;;;1.55;;
25637;SDS011;13496;51.040;13.680;2023-03-21T08:13:47;1.90;;;1.80;;
25637;SDS011;13496;51.040;13.680;2023-03-21T08:18:49;2.08;;;1.90;;
25637;SDS011;13496;51.040;13.680;2023-03-21T08:23:51;1.73;;;1.63;;
25637;SDS011;13496;51.040;13.680;2023-03-21T08:28:53;1.70;;;1.60;;
25637;SDS011;13496;51.040;13.680;2023-03-21T08:33:55;1.77;;;1.35;;
25637;SDS011;13496;51.040;13.680;2023-03-21T08:38:56;1.30;;;1.23;;
25637;SDS011;13496;51.040;13.680;2023-03-21T08:44:05;1.63;;;1.52;;
25637;SDS011;13496;51.040;13.680;2023-03-21T08:49:07;1.70;;;1.60;;
25637;SDS011;13496;51.040;13.680;2023-03-21T08:54:15;1.40;;;1.30;;
25637;SDS011;13496;51.040;13.680;2023-03-21T08:59:19;1.70;;;1.60;;
25637;SDS011;13496;51.040;13.680;2023-03-21T09:04:21;1.73;;;1.63;;
25637;SDS011;13496;51.040;13.680;2023-03-21T09:09:26;1.40;;;1.30;;
25637;SDS011;13496;51.040;13.680;2023-03-21T09:14:29;1.70;;;1.48;;
25637;SDS011;13496;51.040;13.680;2023-03-21T09:19:31;2.00;;;1.40;;
25637;SDS011;13496;51.040;13.680;2023-03-21T09:24:32;1.50;;;1.40;;
25637;SDS011;13496;51.040;13.680;2023-03-21T09:29:34;1.50;;;1.40;;
25637;SDS011;13496;51.040;13.680;2023-03-21T09:34:37;1.40;;;1.30;;
25637;SDS011;13496;51.040;13.680;2023-03-21T09:39:41;1.30;;;1.20;;
25637;SDS011;13496;51.040;13.680;2023-03-21T09:50:04;1.42;;;1.33;;
25637;SDS011;13496;51.040;13.680;2023-03-21T09:55:32;1.48;;;1.38;;
25637;SDS011;13496;51.040;13.680;2023-03-21T10:00:37;1.40;;;1.30;;
25637;SDS011;13496;51.040;13.680;2023-03-21T10:05:40;1.50;;;1.40;;
25637;SDS011;13496;51.040;13.680;2023-03-21T10:10:51;1.38;;;1.27;;
25637;SDS011;13496;51.040;13.680;2023-03-21T10:15:57;1.40;;;1.30;;
25637;SDS011;13496;51.040;13.680;2023-03-21T10:21:01;1.13;;;1.10;;
25637;SDS011;13496;51.040;13.680;2023-03-21T10:26:06;1.33;;;1.23;;
25637;SDS011;13496;51.040;13.680;2023-03-21T10:31:08;1.30;;;1.20;;
25637;SDS011;13496;51.040;13.680;2023-03-21T10:36:22;1.52;;;1.42;;
25637;SDS011;13496;51.040;13.680;2023-03-21T10:41:26;1.40;;;1.30;;
25637;SDS011;13496;51.040;13.680;2023-03-21T10:46:28;1.35;;;1.25;;
25637;SDS011;13496;51.040;13.680;2023-03-21T10:51:31;1.10;;;1.10;;
25637;SDS011;13496;51.040;13.680;2023-03-21T10:56:36;1.20;;;1.10;;
25637;SDS011;13496;51.040;13.680;2023-03-21T11:01:45;1.52;;;1.30;;
25637;SDS011;13496;51.040;13.680;2023-03-21T11:06:51;1.23;;;1.23;;
25637;SDS011;13496;51.040;13.680;2023-03-21T11:12:03;1.60;;;1.50;;
25637;SDS011;13496;51.040;13.680;2023-03-21T11:22:18;1.33;;;1.23;;
25637;SDS011;13496;51.040;13.680;2023-03-21T11:27:22;1.40;;;1.30;;
25637;SDS011;13496;51.040;13.680;2023-03-21T11:37:36;1.52;;;1.42;;
25637;SDS011;13496;51.040;13.680;2023-03-21T11:42:43;1.30;;;1.20;;
25637;SDS011;13496;51.040;13.680;2023-03-21T11:47:46;1.30;;;1.20;;
25637;SDS011;13496;51.040;13.680;2023-03-21T12:03:58;1.30;;;1.20;;
25637;SDS011;13496;51.040;13.680;2023-03-21T12:09:14;1.23;;;1.00;;
25637;SDS011;13496;51.040;13.680;2023-03-21T12:14:29;1.20;;;1.10;;
25637;SDS011;13496;51.040;13.680;2023-03-21T12:19:52;1.20;;;1.10;;
25637;SDS011;13496;51.040;13.680;2023-03-21T12:25:18;1.30;;;1.20;;
25637;SDS011;13496;51.040;13.680;2023-03-21T12:30:30;1.40;;;1.30;;
25637;SDS011;13496;51.040;13.680;2023-03-21T12:46:23;1.00;;;1.00;;
25637;SDS011;13496;51.040;13.680;2023-03-21T12:51:38;1.30;;;1.20;;
25637;SDS011;13496;51.040;13.680;2023-03-21T12:56:46;1.27;;;1.20;;
25637;SDS011;13496;51.040;13.680;2023-03-21T13:01:57;1.35;;;1.25;;
25637;SDS011;13496;51.040;13.680;2023-03-21T13:07:04;1.13;;;1.08;;
25637;SDS011;13496;51.040;13.680;2023-03-21T13:17:39;1.48;;;1.10;;
25637;SDS011;13496;51.040;13.680;2023-03-21T13:22:44;2.08;;;1.20;;
25637;SDS011;13496;51.040;13.680;2023-03-21T13:27:53;1.10;;;1.10;;
25637;SDS011;13496;51.040;13.680;2023-03-21T13:33:05;1.10;;;1.10;;
25637;SDS011;13496;51.040;13.680;2023-03-21T13:38:16;1.20;;;1.10;;
25637;SDS011;13496;51.040;13.680;2023-03-21T13:48:59;1.20;;;1.10;;
25637;SDS011;13496;51.040;13.680;2023-03-21T13:59:16;0.90;;;0.90;;
25637;SDS011;13496;51.040;13.680;2023-03-21T14:04:39;1.10;;;1.10;;
25637;SDS011;13496;51.040;13.680;2023-03-21T14:09:44;1.35;;;1.25;;
25637;SDS011;13496;51.040;13.680;2023-03-21T14:14:49;1.40;;;1.30;;
25637;SDS011;13496;51.040;13.680;2023-03-21T14:19:55;2.03;;;1.13;;
25637;SDS011;13496;51.040;13.680;2023-03-21T14:25:01;1.00;;;1.00;;
25637;SDS011;13496;51.040;13.680;2023-03-21T14:30:03;0.95;;;0.95;;
25637;SDS011;13496;51.040;13.680;2023-03-21T14:35:08;1.10;;;1.00;;
25637;SDS011;13496;51.040;13.680;2023-03-21T14:40:23;1.27;;;1.17;;
25637;SDS011;13496;51.040;13.680;2023-03-21T14:45:28;1.10;;;1.10;;
25637;SDS011;13496;51.040;13.680;2023-03-21T14:50:38;1.00;;;1.00;;
25637;SDS011;13496;51.040;13.680;2023-03-21T14:55:45;0.90;;;0.90;;
25637;SDS011;13496;51.040;13.680;2023-03-21T15:00:51;1.20;;;1.10;;
25637;SDS011;13496;51.040;13.680;2023-03-21T15:05:54;1.20;;;1.10;;
25637;SDS011;13496;51.040;13.680;2023-03-21T15:11:10;1.60;;;1.17;;
25637;SDS011;13496;51.040;13.680;2023-03-21T15:16:12;1.30;;;1.20;;
25637;SDS011;13496;51.040;13.680;2023-03-21T15:21:16;1.08;;;1.02;;
25637;SDS011;13496;51.040;13.680;2023-03-21T15:26:23;1.30;;;1.20;;
25637;SDS011;13496;51.040;13.680;2023-03-21T15:31:30;1.40;;;1.30;;
25637;SDS011;13496;51.040;13.680;2023-03-21T15:36:40;1.30;;;1.20;;
25637;SDS011;13496;51.040;13.680;2023-03-21T15:42:04;1.35;;;1.20;;
25637;SDS011;13496;51.040;13.680;2023-03-21T15:47:37;1.20;;;1.10;;
25637;SDS011;13496;51.040;13.680;2023-03-21T15:52:41;1.33;;;1.00;;
25637;SDS011;13496;51.040;13.680;2023-03-21T15:57:44;0.90;;;0.90;;
25637;SDS011;13496;51.040;13.680;2023-03-21T16:02:48;1.27;;;1.20;;
25637;SDS011;13496;51.040;13.680;2023-03-21T16:08:05;1.20;;;1.10;;
25637;SDS011;13496;51.040;13.680;2023-03-21T16:13:22;1.30;;;1.20;;
25637;SDS011;13496;51.040;13.680;2023-03-21T16:18:24;1.00;;;1.00;;
25637;SDS011;13496;51.040;13.680;2023-03-21T16:23:26;1.63;;;1.27;;
25637;SDS011;13496;51.040;13.680;2023-03-21T16:28:27;1.15;;;1.05;;
25637;SDS011;13496;51.040;13.680;2023-03-21T16:33:29;1.30;;;1.20;;
25637;SDS011;13496;51.040;13.680;2023-03-21T16:38:31;1.23;;;1.10;;
25637;SDS011;13496;51.040;13.680;2023-03-21T16:43:32;1.20;;;1.10;;
25637;SDS011;13496;51.040;13.680;2023-03-21T16:48:34;1.30;;;1.20;;
25637;SDS011;13496;51.040;13.680;2023-03-21T16:53:36;1.08;;;1.08;;
25637;SDS011;13496;51.040;13.680;2023-03-21T16:58:38;4.03;;;1.42;;
25637;SDS011;13496;51.040;13.680;2023-03-21T17:03:39;1.20;;;1.10;;
25637;SDS011;13496;51.040;13.680;2023-03-21T17:08:42;10.38;;;2.15;;
25637;SDS011;13496;51.040;13.680;2023-03-21T17:13:45;4.85;;;1.70;;
25637;SDS011;13496;51.040;13.680;2023-03-21T17:18:48;8.98;;;1.70;;
25637;SDS011;13496;51.040;13.680;2023-03-21T17:23:51;8.90;;;2.00;;
25637;SDS011;13496;51.040;13.680;2023-03-21T17:28:54;6.10;;;1.38;;
25637;SDS011;13496;51.040;13.680;2023-03-21T17:34:00;10.13;;;1.88;;
25637;SDS011;13496;51.040;13.680;2023-03-21T17:39:03;3.70;;;1.70;;
25637;SDS011;13496;51.040;13.680;2023-03-21T17:44:06;3.92;;;1.40;;
25637;SDS011;13496;51.040;13.680;2023-03-21T17:49:09;4.50;;;1.77;;
25637;SDS011;13496;51.040;13.680;2023-03-21T17:54:13;5.03;;;1.75;;
25637;SDS011;13496;51.040;13.680;2023-03-21T17:59:15;5.13;;;1.38;;
25637;SDS011;13496;51.040;13.680;2023-03-21T18:04:17;4.22;;;1.42;;
25637;SDS011;13496;51.040;13.680;2023-03-21T18:09:20;3.60;;;1.33;;
25637;SDS011;13496;51.040;13.680;2023-03-21T18:14:22;1.70;;;1.40;;
25637;SDS011;13496;51.040;13.680;2023-03-21T18:19:23;4.93;;;1.40;;
25637;SDS011;13496;51.040;13.680;2023-03-21T18:24:25;2.67;;;1.50;;
25637;SDS011;13496;51.040;13.680;2023-03-21T18:29:27;2.08;;;1.40;;
25637;SDS011;13496;51.040;13.680;2023-03-21T18:34:30;2.15;;;1.52;;
25637;SDS011;13496;51.040;13.680;2023-03-21T18:39:33;6.97;;;1.88;;
25637;SDS011;13496;51.040;13.680;2023-03-21T18:44:35;12.35;;;2.70;;
25637;SDS011;13496;51.040;13.680;2023-03-21T18:49:37;5.32;;;1.55;;
25637;SDS011;13496;51.040;13.680;2023-03-21T18:54:39;13.27;;;2.47;;
25637;SDS011;13496;51.040;13.680;2023-03-21T18:59:41;10.32;;;2.60;;
25637;SDS011;13496;51.040;13.680;2023-03-21T19:04:43;11.05;;;2.20;;
25637;SDS011;13496;51.040;13.680;2023-03-21T19:09:45;8.45;;;2.55;;
25637;SDS011;13496;51.040;13.680;2023-03-21T19:14:46;4.70;;;1.83;;
25637;SDS011;13496;51.040;13.680;2023-03-21T19:19:48;5.55;;;1.88;;
25637;SDS011;13496;51.040;13.680;2023-03-21T19:24:50;7.80;;;2.13;;
25637;SDS011;13496;51.040;13.680;2023-03-21T19:29:53;3.83;;;1.73;;
25637;SDS011;13496;51.040;13.680;2023-03-21T19:34:57;3.13;;;2.05;;
25637;SDS011;13496;51.040;13.680;2023-03-21T19:39:58;4.25;;;1.85;;
25637;SDS011;13496;51.040;13.680;2023-03-21T19:45:01;8.38;;;2.00;;
25637;SDS011;13496;51.040;13.680;2023-03-21T19:50:04;4.65;;;2.08;;
25637;SDS011;13496;51.040;13.680;2023-03-21T19:55:06;6.72;;;2.28;;
25637;SDS011;13496;51.040;13.680;2023-03-21T20:00:09;6.30;;;2.00;;
25637;SDS011;13496;51.040;13.680;2023-03-21T20:05:12;5.78;;;2.00;;
25637;SDS011;13496;51.040;13.680;2023-03-21T20:10:16;5.47;;;2.17;;
25637;SDS011;13496;51.040;13.680;2023-03-21T20:15:18;3.35;;;1.90;;
25637;SDS011;13496;51.040;13.680;2023-03-21T20:20:20;2.00;;;1.80;;
25637;SDS011;13496;51.040;13.680;2023-03-21T20:25:23;3.13;;;2.00;;
25637;SDS011;13496;51.040;13.680;2023-03-21T20:30:25;5.38;;;2.35;;
25637;SDS011;13496;51.040;13.680;2023-03-21T20:35:27;2.75;;;1.95;;
25637;SDS011;13496;51.040;13.680;2023-03-21T20:40:29;2.92;;;1.63;;
25637;SDS011;13496;51.040;13.680;2023-03-21T20:45:31;3.13;;;1.90;;
25637;SDS011;13496;51.040;13.680;2023-03-21T20:50:33;2.83;;;1.75;;
25637;SDS011;13496;51.040;13.680;2023-03-21T20:55:35;4.68;;;2.00;;
25637;SDS011;13496;51.040;13.680;2023-03-21T21:00:37;3.58;;;2.05;;
25637;SDS011;13496;51.040;13.680;2023-03-21T21:05:43;2.67;;;2.25;;
25637;SDS011;13496;51.040;13.680;2023-03-21T21:10:45;3.40;;;1.90;;
25637;SDS011;13496;51.040;13.680;2023-03-21T21:15:49;2.55;;;1.88;;
25637;SDS011;13496;51.040;13.680;2023-03-21T21:20:52;2.03;;;1.77;;
25637;SDS011;13496;51.040;13.680;2023-03-21T21:25:54;2.20;;;1.92;;
25637;SDS011;13496;51.040;13.680;2023-03-21T21:30:57;3.00;;;1.70;;
25637;SDS011;13496;51.040;13.680;2023-03-21T21:36:07;2.63;;;1.98;;
25637;SDS011;13496;51.040;13.680;2023-03-21T21:41:13;2.55;;;1.92;;
25637;SDS011;13496;51.040;13.680;2023-03-21T21:46:18;3.35;;;2.00;;
25637;SDS011;13496;51.040;13.680;2023-03-21T21:51:20;4.13;;;1.75;;
25637;SDS011;13496;51.040;13.680;2023-03-21T21:56:26;2.42;;;1.77;;
25637;SDS011;13496;51.040;13.680;2023-03-21T22:01:32;2.03;;;1.85;;
25637;SDS011;13496;51.040;13.680;2023-03-21T22:06:34;2.08;;;1.85;;
25637;SDS011;13496;51.040;13.680;2023-03-21T22:11:37;2.20;;;1.83;;
25637;SDS011;13496;51.040;13.680;2023-03-21T22:16:38;4.68;;;2.25;;
25637;SDS011;13496;51.040;13.680;2023-03-21T22:21:40;2.60;;;1.88;;
25637;SDS011;13496;51.040;13.680;2023-03-21T22:26:42;2.25;;;1.98;;
25637;SDS011;13496;51.040;13.680;2023-03-21T22:31:44;2.00;;;1.80;;
25637;SDS011;13496;51.040;13.680;2023-03-21T22:36:46;2.40;;;1.70;;
25637;SDS011;13496;51.040;13.680;2023-03-21T22:41:47;2.20;;;2.00;;
25637;SDS011;13496;51.040;13.680;2023-03-21T22:46:49;1.77;;;1.50;;
25637;SDS011;13496;51.040;13.680;2023-03-21T22:51:51;2.28;;;2.08;;
25637;SDS011;13496;51.040;13.680;2023-03-21T22:56:53;2.33;;;2.13;;
25637;SDS011;13496;51.040;13.680;2023-03-21T23:01:57;2.05;;;1.83;;
25637;SDS011;13496;51.040;13.680;2023-03-21T23:06:58;1.85;;;1.75;;
25637;SDS011;13496;51.040;13.680;2023-03-21T23:12:00;3.38;;;1.95;;
25637;SDS011;13496;51.040;13.680;2023-03-21T23:17:02;2.60;;;1.80;;
25637;SDS011;13496;51.040;13.680;2023-03-21T23:22:04;2.25;;;1.65;;
25637;SDS011;13496;51.040;13.680;2023-03-21T23:27:06;2.20;;;1.90;;
25637;SDS011;13496;51.040;13.680;2023-03-21T23:32:07;2.05;;;1.85;;
25637;SDS011;13496;51.040;13.680;2023-03-21T23:37:09;1.85;;;1.60;;
25637;SDS011;13496;51.040;13.680;2023-03-21T23:42:11;2.15;;;1.95;;
25637;SDS011;13496;51.040;13.680;2023-03-21T23:47:13;2.40;;;1.85;;
25637;SDS011;13496;51.040;13.680;2023-03-21T23:52:16;1.83;;;1.73;;
25637;SDS011;13496;51.040;13.680;2023-03-21T23:57:17;1.70;;;1.60;;
